AirNav   Everest Fuels
 
 929 users online  

CO62 Cherry Creek Townhouse Heliport
Glendale, Colorado, USA

GOING TO GLENDALE?


FAA INFORMATION EFFECTIVE 08 SEPTEMBER 2022

Location

FAA Identifier: CO62
Lat/Long: 39-42-19.9540N 104-56-21.9260W
39-42.332567N 104-56.365433W
39.7055428,-104.9394239
(estimated)
Elevation: 5340 ft. / 1628 m (estimated)
Variation: 11E (1985)
Time zone: UTC -6 (UTC -7 during Standard Time)
Zip code: 80246

Heliport Operations

Heliport use: Private use. Permission required prior to landing
Activation date: 12/1962
Control tower: no
ARTCC: DENVER CENTER
FSS: DENVER FLIGHT SERVICE STATION
Attendance: CONTINUOUS
Wind indicator: no
Segmented circle: no
Landing fee: yes

Heliport Communications

WX ASOS at APA (9 nm SE): PHONE 720-873-2799
WX AWOS-3 at BJC (15 nm NW): PHONE 720-887-8067
WX ASOS at DEN (15 nm NE): PHONE 303-342-1920
WX AWOS-3 at EIK (19 nm N): 133.825 (303-604-4339)
WX AWOS-3 at CFO (19 nm E): 119.025 (303-261-9104)

Nearby radio navigation aids

VOR radial/distance  VOR name  Freq  Var
DENr235/14.4DENVER VOR/DME117.9008E
FQFr263/14.7FALCON VORTAC116.3011E
BJCr133/15.5JEFFCO VOR/DME115.4011E
DVVr224/18.4MILE HIGH VORTAC114.7008E

Heliport Services

Airframe service: NONE
Powerplant service: NONE

Runway Information

Helipad H1

Dimensions: 150 x 100 ft. / 46 x 30 m
Surface: turf
Latitude: 39-42.332500N
Longitude: 104-56.365500W
Elevation: 5340.0 ft.
Traffic pattern: leftleft

Heliport Ownership and Management from official FAA records

Ownership: Privately-owned
Owner: TOWNHOUSE MANAGEMENT INC
600 S. COLORADO BLVD
DENVER, CO 80222
Phone 303-757-3341
Manager: DEBRA MCNISH
600 S COLORADO BLVD
DENVER, CO 80222
Phone 303-757-3341

Additional Remarks

A52-H1 CHERRY CREEK INN 200' N & COLORADO BLVD 800' W.
FOR CD CTC DENVER APCH AT 303-342-1916.

Instrument Procedures

There are no published instrument procedures at CO62.

Some nearby airports with instrument procedures:

KBKF - Buckley Space Force Base (9 nm E)
KAPA - Centennial Airport (9 nm SE)
KBJC - Rocky Mountain Metro Airport (15 nm NW)
KDEN - Denver International Airport (15 nm NE)
KEIK - Erie Municipal Airport (19 nm N)
KCFO - Colorado Air and Space Port Airport (19 nm E)
 
Loc | Ops | Rwys | IFR | FBO | Links
Com | Nav | Svcs | Stats | Notes

AirBoss

 
Area around CO62 (Cherry Creek Townhouse Heliport)
 
Road maps at: MapQuest Bing Google
 
Aerial photo
No photo
 
Sectional chart

 
Airport distance calculator
Flying to Cherry Creek Townhouse Heliport? Find the distance to fly.

From to CO62

Sunrise and sunset
Times for 24-Sep-2022
 Local
(UTC-6)
 Zulu
(UTC)
Morning civil twilight06:2312:23
Sunrise06:5012:50
Sunset18:5300:53
Evening civil twilight19:2001:20

Current date and time
Zulu (UTC)  24-Sep-2022 23:29:34
Local (UTC-6)  24-Sep-2022 17:29:34
 
METAR
KBKF 
9nm E 
242258Z 33005KT 10SM FEW100 27/M04 A3020 RMK AO2A SLP164 T02701038
KAPA 
9nm SE 
242253Z 02006KT 10SM FEW100 26/M04 A3020 RMK AO2 SLP173 T02611044
KBJC 
15nm NW 
242245Z 10004KT 10SM SKC 27/M03 A3020
KDEN 
15nm NE 
242253Z 07006KT 10SM FEW100 26/M04 A3018 RMK AO2 SLP155 T02611044
KEIK 
19nm N 
242315Z AUTO 07007KT 10SM CLR 27/M05 A3017 RMK AO2 T02701052 PWINO
KCFO 
19nm E 
242247Z 03006KT 10SM SKC 27/M08 A3020
TAF
KBKF 
9nm E 
241700Z 2417/2523 VRB06KT 9999 SKC 510023 QNH3021INS TX24/2422Z TN07/2512Z
KAPA 
9nm SE 
241740Z 2418/2518 VRB05KT P6SM FEW100 FEW220 FM242200 08006KT P6SM FEW220 FM250700 01006KT P6SM FEW220 FM251100 19006KT P6SM SKC FM251700 04006KT P6SM SKC
KBJC 
15nm NW 
241740Z 2418/2518 VRB03KT P6SM SKC FM241900 07007KT P6SM SKC FM250500 35005KT P6SM SKC
KDEN 
15nm NE 
242032Z 2421/2524 01009KT P6SM FEW100 FEW220 FM242230 04010KT P6SM FEW100 FEW220 FM250000 09006KT P6SM FEW220 FM250600 01006KT P6SM FEW220 FM251000 20006KT P6SM SKC FM251700 02007KT P6SM SKC FM252000 07007KT P6SM FEW120
NOTAMs
Click for the latest NOTAMs
NOTAMs are issued by the DoD/FAA and will open in a separate window not controlled by AirNav.

 

 
 

Would you like to see your business listed on this page?

 If your business provides an interesting product or service to pilots, flight crews, aircraft, or users of the Cherry Creek Townhouse Heliport, you should consider listing it here.  To start the listing process, click on the button below
 
Add a business
 

Other Pages about Cherry Creek Townhouse Heliport

Update a link
 
Copyright © AirNav, LLC. All rights reserved. Privacy Policy  Contact